Time;durP1;ratioP1;P1;durP2;ratioP2;P2;SDS_P1;SDS_P2;PMS_P1;PMS_P2;Temp;Humidity;BMP_temperature;BMP_pressure;BME280_temperature;BME280_humidity;BME280_pressure;Samples;Min_cycle;Max_cycle;Signal;HPM_P1;HPM_P2
2022/03/12 00:00:31;;;;;;;6.85;2.08;;;20.80;48.80;;;;;;4545893;31;20286;-67
2022/03/12 00:02:57;;;;;;;6.63;2.60;;;20.70;48.80;;;;;;4531515;31;20142;-67
2022/03/12 00:05:25;;;;;;;7.97;2.65;;;20.70;48.90;;;;;;4546235;31;20605;-67
2022/03/12 00:07:51;;;;;;;5.88;1.88;;;20.70;49.00;;;;;;4531240;31;20221;-67
2022/03/12 00:10:19;;;;;;;9.77;2.60;;;20.60;48.90;;;;;;4532091;31;20277;-67
2022/03/12 00:12:44;;;;;;;8.00;2.40;;;20.60;49.00;;;;;;4543936;31;20124;-68
2022/03/12 00:15:12;;;;;;;6.75;2.08;;;20.60;49.00;;;;;;4528761;31;20121;-67
2022/03/12 00:17:45;;;;;;;7.15;2.22;;;20.60;49.10;;;;;;4545798;31;20149;-67
2022/03/12 00:20:14;;;;;;;;;;;20.60;49.10;;;;;;4546056;31;20136;-67
2022/03/12 00:22:44;;;;;;;8.13;2.72;;;20.50;49.00;;;;;;4531032;31;20020;-67
2022/03/12 00:25:11;;;;;;;5.57;2.00;;;20.50;49.10;;;;;;4545594;31;20278;-67
2022/03/12 00:27:39;;;;;;;7.32;2.25;;;20.50;49.10;;;;;;4532319;31;20147;-67
2022/03/12 00:30:07;;;;;;;6.68;2.00;;;20.50;49.10;;;;;;4545478;31;20127;-67
2022/03/12 00:32:36;;;;;;;8.00;2.95;;;20.40;49.10;;;;;;4546508;31;20127;-67
2022/03/12 00:35:04;;;;;;;6.45;2.38;;;20.40;49.20;;;;;;4545912;31;20127;-67
2022/03/12 00:37:30;;;;;;;8.63;2.25;;;20.40;49.20;;;;;;4545983;31;20112;-67
2022/03/12 00:39:56;;;;;;;8.38;2.45;;;20.40;49.30;;;;;;4546140;31;20212;-67
2022/03/12 00:42:22;;;;;;;7.55;1.92;;;20.40;49.30;;;;;;4531035;31;20124;-67
2022/03/12 00:44:48;;;;;;;7.25;2.40;;;20.30;49.30;;;;;;4546436;31;20127;-67
2022/03/12 00:47:14;;;;;;;6.72;2.10;;;20.30;49.30;;;;;;4545430;31;20133;-67
2022/03/12 00:49:40;;;;;;;6.05;2.03;;;20.30;49.30;;;;;;4519306;31;20127;-67
2022/03/12 00:52:06;;;;;;;5.20;2.00;;;20.30;49.30;;;;;;4545859;31;20290;-67
2022/03/12 00:54:32;;;;;;;5.00;2.20;;;20.20;49.30;;;;;;4531427;31;20162;-67
2022/03/12 00:56:58;;;;;;;6.57;2.08;;;20.20;49.40;;;;;;4531371;31;20626;-67
2022/03/12 00:59:24;;;;;;;6.82;1.85;;;20.20;49.40;;;;;;4517662;31;20517;-67
2022/03/12 01:01:50;;;;;;;4.40;1.80;;;20.20;49.40;;;;;;4531724;31;20330;-67
2022/03/12 01:04:16;;;;;;;5.93;2.15;;;20.20;49.50;;;;;;4542395;31;20127;-67
2022/03/12 01:06:43;;;;;;;4.13;1.95;;;20.10;49.40;;;;;;4530825;31;20156;-67
2022/03/12 01:09:11;;;;;;;7.07;1.98;;;20.10;49.50;;;;;;4544756;31;20131;-67
2022/03/12 01:11:38;;;;;;;4.90;2.00;;;20.10;50.50;;;;;;4530982;31;20123;-67
2022/03/12 01:14:06;;;;;;;5.22;1.73;;;20.10;49.50;;;;;;4530444;31;20142;-67
2022/03/12 01:16:33;;;;;;;5.93;1.90;;;20.10;49.50;;;;;;4544382;31;20111;-67
2022/03/12 01:18:59;;;;;;;5.78;1.80;;;20.10;49.50;;;;;;4545335;31;20192;-67
2022/03/12 01:21:26;;;;;;;5.47;2.30;;;20.00;49.50;;;;;;4544060;31;20147;-67
2022/03/12 01:23:53;;;;;;;3.40;1.80;;;20.00;49.50;;;;;;4530450;31;20124;-67
2022/03/12 01:26:21;;;;;;;4.88;2.13;;;20.00;49.50;;;;;;4544085;31;20167;-67
2022/03/12 01:28:47;;;;;;;5.20;1.83;;;20.00;49.60;;;;;;4544719;31;20131;-67
2022/03/12 01:31:15;;;;;;;5.65;1.92;;;20.00;49.60;;;;;;4544631;31;20135;-67
2022/03/12 01:33:41;;;;;;;5.43;1.90;;;20.00;49.60;;;;;;4544514;31;20143;-67
2022/03/12 01:36:07;;;;;;;4.45;1.63;;;19.90;49.60;;;;;;4531936;31;20138;-67
2022/03/12 01:38:39;;;;;;;6.18;1.88;;;19.90;49.60;;;;;;4545179;31;20134;-67
2022/03/12 01:41:06;;;;;;;3.90;1.63;;;19.90;49.70;;;;;;4546296;31;20136;-67
2022/03/12 01:43:35;;;;;;;5.18;1.92;;;19.90;49.60;;;;;;4545496;31;20142;-67
2022/03/12 01:46:02;;;;;;;4.22;1.85;;;19.90;49.70;;;;;;4545660;31;20135;-67
2022/03/12 01:48:29;;;;;;;4.05;1.90;;;19.90;49.60;;;;;;4531443;31;20128;-67
2022/03/12 01:50:55;;;;;;;4.47;2.00;;;19.90;49.70;;;;;;4545143;31;20259;-67
2022/03/12 01:53:25;;;;;;;3.90;1.83;;;19.90;49.70;;;;;;4531813;31;20569;-67
2022/03/12 01:55:51;;;;;;;4.57;1.88;;;19.80;49.70;;;;;;4544827;31;20127;-67
2022/03/12 01:58:17;;;;;;;4.68;2.03;;;19.80;49.70;;;;;;4545818;31;20127;-67
2022/03/12 02:00:46;;;;;;;6.50;1.77;;;19.80;49.70;;;;;;4545262;31;20127;-67
2022/03/12 02:03:18;;;;;;;3.47;1.73;;;19.80;49.80;;;;;;4531308;31;20183;-67
2022/03/12 02:05:45;;;;;;;3.47;1.55;;;19.80;49.80;;;;;;4531571;31;20139;-66
2022/03/12 02:08:13;;;;;;;4.93;1.60;;;19.80;49.80;;;;;;4544806;31;20232;-67
2022/03/12 02:10:43;;;;;;;5.93;1.77;;;19.80;49.80;;;;;;4546075;31;20188;-67
2022/03/12 02:13:10;;;;;;;3.95;1.75;;;19.70;49.80;;;;;;4517314;31;20148;-67
2022/03/12 02:15:37;;;;;;;4.00;1.67;;;19.70;49.80;;;;;;4531642;31;20202;-67
2022/03/12 02:18:03;;;;;;;3.92;1.80;;;19.70;49.90;;;;;;4545264;31;20602;-67
2022/03/12 02:20:29;;;;;;;5.05;1.77;;;19.70;49.90;;;;;;4530867;31;20132;-67
2022/03/12 02:22:57;;;;;;;4.57;1.70;;;19.70;49.90;;;;;;4531315;31;20112;-67
2022/03/12 02:25:33;;;;;;;3.10;1.50;;;19.70;49.90;;;;;;4518230;31;20154;-67
2022/03/12 02:28:00;;;;;;;2.67;1.42;;;19.60;49.80;;;;;;4549157;31;20115;-67
2022/03/12 02:30:34;;;;;;;4.47;1.70;;;19.60;49.80;;;;;;4533805;31;20119;-67
2022/03/12 02:33:04;;;;;;;3.08;1.27;;;19.60;49.90;;;;;;4548848;31;20140;-67
2022/03/12 02:35:37;;;;;;;3.25;1.50;;;19.60;49.90;;;;;;4534172;31;20127;-67
2022/03/12 02:38:04;;;;;;;2.88;1.60;;;19.60;49.90;;;;;;4534714;31;20135;-67
2022/03/12 02:40:31;;;;;;;2.72;1.42;;;19.60;49.90;;;;;;4549094;31;20147;-67
2022/03/12 02:42:58;;;;;;;3.63;1.50;;;19.60;50.00;;;;;;4547989;31;20132;-67
2022/03/12 02:45:28;;;;;;;4.82;1.63;;;19.50;49.90;;;;;;4534423;31;20689;-67
2022/03/12 02:47:55;;;;;;;4.10;1.73;;;19.50;49.90;;;;;;4548081;31;20184;-67
2022/03/12 02:50:23;;;;;;;2.97;1.65;;;19.50;49.90;;;;;;4548148;31;20676;-67
2022/03/12 02:52:49;;;;;;;2.78;1.50;;;19.50;49.90;;;;;;4534419;31;20146;-67
2022/03/12 02:55:18;;;;;;;3.22;1.48;;;19.50;49.90;;;;;;4547688;31;20477;-67
2022/03/12 02:57:48;;;;;;;2.95;1.52;;;19.50;49.90;;;;;;4521036;31;20135;-67
2022/03/12 03:00:16;;;;;;;3.90;1.80;;;19.50;50.00;;;;;;4547816;31;20123;-67
2022/03/12 03:02:53;;;;;;;5.13;1.80;;;19.50;50.00;;;;;;4548482;31;20622;-67
2022/03/12 03:08:03;;;;;;;3.05;1.50;;;19.40;50.00;;;;;;4547605;31;20286;-68
2022/03/12 03:10:36;;;;;;;3.63;1.33;;;19.40;50.00;;;;;;4548680;31;20135;-67
2022/03/12 03:13:20;;;;;;;3.35;1.70;;;19.40;50.00;;;;;;4547528;31;20138;-67
2022/03/12 03:15:59;;;;;;;;;;;19.40;50.00;;;;;;4548959;31;20299;-67
2022/03/12 03:18:31;;;;;;;5.40;2.05;;;19.40;50.90;;;;;;4548120;31;20068;-68
2022/03/12 03:20:59;;;;;;;2.85;1.38;;;19.40;50.00;;;;;;4547425;31;20135;-67
2022/03/12 03:23:29;;;;;;;4.05;1.38;;;19.30;50.00;;;;;;4548530;31;20196;-66
2022/03/12 03:25:56;;;;;;;3.22;1.25;;;19.30;50.00;;;;;;4546951;31;20131;-67
2022/03/12 03:28:23;;;;;;;4.47;1.77;;;19.30;50.00;;;;;;4547951;31;20123;-68
2022/03/12 03:30:48;;;;;;;2.65;1.40;;;19.30;50.00;;;;;;4547422;31;20632;-67
2022/03/12 03:33:20;;;;;;;2.53;1.30;;;19.30;50.00;;;;;;4547963;31;20182;-68
2022/03/12 03:35:46;;;;;;;2.60;1.42;;;19.30;50.10;;;;;;4520170;31;20171;-67
2022/03/12 03:38:13;;;;;;;4.35;1.60;;;19.30;50.00;;;;;;4532536;31;20123;-68
2022/03/12 03:40:41;;;;;;;2.80;1.52;;;19.30;50.10;;;;;;4533830;31;20193;-67
2022/03/12 03:43:09;;;;;;;2.65;1.45;;;19.30;50.10;;;;;;4532693;31;20123;-67
2022/03/12 03:45:35;;;;;;;4.50;1.40;;;19.20;50.10;;;;;;4533258;31;20130;-67
2022/03/12 03:48:01;;;;;;;3.83;1.70;;;19.20;50.10;;;;;;4547227;31;20119;-67
2022/03/12 03:50:27;;;;;;;2.72;1.42;;;19.20;50.00;;;;;;4547100;31;20112;-67
2022/03/12 03:52:57;;;;;;;2.30;1.33;;;19.20;50.10;;;;;;4547302;31;20138;-67
2022/03/12 03:55:26;;;;;;;5.47;1.50;;;19.20;50.10;;;;;;4546678;31;20147;-67
2022/03/12 03:57:56;;;;;;;4.50;1.63;;;19.20;50.10;;;;;;4547946;31;20148;-67
2022/03/12 04:00:23;;;;;;;2.75;1.45;;;19.20;50.10;;;;;;4546984;31;20136;-67
2022/03/12 04:02:55;;;;;;;2.40;1.45;;;19.20;51.00;;;;;;4547698;31;20194;-67
2022/03/12 04:05:22;;;;;;;2.75;1.35;;;19.20;50.10;;;;;;4533040;31;20287;-67
2022/03/12 04:07:48;;;;;;;2.63;1.63;;;19.20;50.10;;;;;;4546728;31;20210;-67
2022/03/12 04:10:13;;;;;;;3.38;1.40;;;19.20;50.10;;;;;;4547680;31;20151;-67
2022/03/12 04:12:39;;;;;;;2.47;1.42;;;19.10;50.10;;;;;;4546460;31;20128;-67
2022/03/12 04:15:06;;;;;;;2.30;1.52;;;19.10;51.00;;;;;;4533216;31;20132;-67
2022/03/12 04:17:34;;;;;;;1.95;1.13;;;19.10;50.10;;;;;;4532232;31;20522;-67
2022/03/12 04:20:00;;;;;;;1.65;1.30;;;19.10;50.10;;;;;;4547241;31;20182;-67
2022/03/12 04:22:26;;;;;;;3.63;1.80;;;19.10;50.10;;;;;;4546947;31;20251;-67
2022/03/12 04:24:54;;;;;;;2.63;1.42;;;19.10;50.20;;;;;;4532004;31;20179;-67
2022/03/12 04:27:20;;;;;;;2.55;1.20;;;19.10;50.20;;;;;;4547544;31;20147;-67
2022/03/12 04:29:46;;;;;;;3.08;1.70;;;19.10;50.20;;;;;;4546176;31;20146;-67
2022/03/12 04:32:11;;;;;;;2.63;1.60;;;19.00;50.10;;;;;;4532962;31;20120;-67
2022/03/12 04:34:37;;;;;;;3.22;1.40;;;19.00;50.10;;;;;;4546355;31;20615;-67
2022/03/12 04:37:03;;;;;;;2.63;1.60;;;19.00;50.10;;;;;;4547009;31;20124;-67
2022/03/12 04:39:30;;;;;;;2.88;1.33;;;19.00;50.10;;;;;;4546678;31;20487;-67
2022/03/12 04:41:56;;;;;;;2.85;1.42;;;19.00;50.20;;;;;;4532247;31;20194;-67
2022/03/12 04:44:22;;;;;;;2.42;1.02;;;19.00;51.10;;;;;;4547074;31;20272;-67
2022/03/12 04:46:48;;;;;;;3.15;1.58;;;19.00;50.10;;;;;;4531490;31;20140;-68
2022/03/12 04:49:14;;;;;;;1.98;1.30;;;19.00;50.20;;;;;;4546876;31;20257;-67
2022/03/12 04:51:43;;;;;;;4.00;1.38;;;19.00;50.20;;;;;;4545849;31;20607;-67
2022/03/12 04:54:08;;;;;;;2.35;1.38;;;18.90;51.00;;;;;;4532708;31;20138;-67
2022/03/12 04:56:35;;;;;;;3.42;1.30;;;18.90;50.20;;;;;;4545977;31;20139;-67
2022/03/12 04:59:01;;;;;;;1.90;1.10;;;18.90;50.20;;;;;;4518842;31;20118;-68
2022/03/12 05:01:28;;;;;;;1.90;1.40;;;18.90;50.20;;;;;;4546656;31;20179;-67
2022/03/12 05:03:54;;;;;;;2.00;1.17;;;18.90;50.20;;;;;;4545670;31;20124;-67
2022/03/12 05:06:20;;;;;;;1.83;1.00;;;18.90;50.20;;;;;;4546831;31;20485;-67
2022/03/12 05:08:47;;;;;;;2.25;1.10;;;18.90;50.20;;;;;;4545959;31;20136;-67
2022/03/12 05:11:13;;;;;;;2.35;1.35;;;18.90;50.20;;;;;;4546589;31;20131;-68
2022/03/12 05:13:40;;;;;;;3.30;1.58;;;18.80;50.20;;;;;;4531836;31;20135;-67
2022/03/12 05:16:06;;;;;;;2.67;1.60;;;18.80;50.20;;;;;;4546104;31;20179;-67
2022/03/12 05:18:34;;;;;;;2.20;1.30;;;18.80;50.20;;;;;;4532165;31;20269;-67
2022/03/12 05:21:00;;;;;;;2.80;1.38;;;18.80;50.20;;;;;;4531158;31;20123;-68
2022/03/12 05:23:26;;;;;;;2.58;1.42;;;18.80;50.20;;;;;;4546535;31;20124;-67
2022/03/12 05:25:54;;;;;;;2.00;1.42;;;18.80;50.20;;;;;;4543460;31;20167;-67
2022/03/12 05:28:23;;;;;;;2.63;1.25;;;18.80;50.20;;;;;;4530889;31;20127;-68
2022/03/12 05:30:52;;;;;;;1.77;1.13;;;18.80;50.20;;;;;;4545977;31;20183;-68
2022/03/12 05:33:19;;;;;;;2.05;1.35;;;18.80;50.20;;;;;;4545296;31;20150;-67
2022/03/12 05:35:46;;;;;;;2.78;1.30;;;18.80;50.20;;;;;;4545528;31;20200;-67
2022/03/12 05:38:13;;;;;;;2.10;1.63;;;18.80;50.20;;;;;;4544480;31;20258;-68
2022/03/12 05:40:40;;;;;;;2.15;1.10;;;18.80;50.30;;;;;;4531207;31;20193;-67
2022/03/12 05:43:09;;;;;;;2.55;1.30;;;18.70;50.20;;;;;;4529999;31;20539;-67
2022/03/12 05:45:36;;;;;;;3.08;1.40;;;18.70;50.20;;;;;;4542800;31;20127;-67
2022/03/12 05:48:01;;;;;;;2.35;1.20;;;18.70;50.30;;;;;;4544898;31;20477;-67
2022/03/12 05:50:27;;;;;;;2.10;1.38;;;18.70;50.20;;;;;;4530140;31;20096;-66
2022/03/12 05:52:54;;;;;;;1.85;1.13;;;18.70;50.20;;;;;;4545626;31;20152;-67
2022/03/12 05:55:22;;;;;;;2.42;1.27;;;18.70;50.20;;;;;;4544926;31;20120;-67
2022/03/12 05:57:49;;;;;;;1.55;1.10;;;18.70;50.30;;;;;;4545989;31;20182;-67
2022/03/12 06:00:16;;;;;;;2.72;1.27;;;18.70;50.30;;;;;;4530675;31;20146;-67
2022/03/12 06:02:49;;;;;;;2.95;1.25;;;18.70;50.30;;;;;;4545931;31;20154;-67
2022/03/12 06:05:20;;;;;;;2.85;1.33;;;18.70;50.30;;;;;;4531866;31;20142;-66
2022/03/12 06:07:48;;;;;;;2.97;1.42;;;18.60;50.30;;;;;;4545103;31;20127;-67
2022/03/12 06:10:16;;;;;;;1.88;0.90;;;18.60;50.30;;;;;;4546122;31;20131;-67
2022/03/12 06:12:43;;;;;;;1.90;1.30;;;18.60;50.30;;;;;;4544818;31;20216;-67
2022/03/12 06:15:14;;;;;;;2.17;1.17;;;18.60;50.30;;;;;;4545866;31;20212;-67
2022/03/12 06:17:40;;;;;;;3.60;1.30;;;18.60;50.40;;;;;;4545035;31;20235;-68
2022/03/12 06:20:10;;;;;;;2.20;1.17;;;18.60;50.40;;;;;;4545683;31;20127;-68
2022/03/12 06:22:37;;;;;;;1.58;1.05;;;18.60;50.30;;;;;;4531111;31;20232;-68
2022/03/12 06:25:05;;;;;;;1.67;1.15;;;18.60;50.40;;;;;;4544755;31;20120;-68
2022/03/12 06:27:32;;;;;;;2.03;1.20;;;18.60;50.40;;;;;;4545979;31;20127;-67
2022/03/12 06:29:59;;;;;;;2.40;1.48;;;18.50;50.40;;;;;;4544813;31;20210;-68
2022/03/12 06:32:25;;;;;;;2.13;1.27;;;18.60;50.40;;;;;;4545680;31;20160;-67
2022/03/12 06:34:50;;;;;;;2.20;1.13;;;18.50;50.40;;;;;;4530728;31;20122;-67
2022/03/12 06:37:16;;;;;;;2.25;1.23;;;18.60;50.50;;;;;;4531018;31;20099;-67
2022/03/12 06:39:42;;;;;;;3.63;1.20;;;18.50;50.40;;;;;;4545467;31;20212;-67
2022/03/12 06:42:08;;;;;;;1.08;0.98;;;18.50;50.40;;;;;;4545022;31;20139;-68
2022/03/12 06:44:36;;;;;;;1.38;0.93;;;18.50;50.40;;;;;;4545866;31;20452;-68
2022/03/12 06:47:08;;;;;;;1.77;1.10;;;18.50;50.50;;;;;;4544466;31;20186;-67
2022/03/12 06:49:35;;;;;;;1.55;1.23;;;18.50;50.50;;;;;;4545792;31;20128;-67
2022/03/12 06:52:02;;;;;;;1.63;1.10;;;18.50;50.50;;;;;;4544613;31;20128;-67
2022/03/12 06:54:28;;;;;;;1.95;1.20;;;18.50;50.50;;;;;;4545276;31;20147;-67
2022/03/12 06:56:55;;;;;;;1.63;1.30;;;18.40;50.40;;;;;;4530677;31;20146;-68
2022/03/12 06:59:20;;;;;;;1.70;1.05;;;18.40;50.50;;;;;;4544720;31;20131;-67
2022/03/12 07:01:46;;;;;;;2.03;1.20;;;18.40;50.50;;;;;;4531346;31;20517;-67
2022/03/12 07:04:12;;;;;;;1.38;1.00;;;18.40;50.50;;;;;;4544418;31;20136;-67
2022/03/12 07:06:38;;;;;;;1.67;1.10;;;18.40;50.50;;;;;;4545415;31;20119;-67
2022/03/12 07:09:04;;;;;;;1.90;1.20;;;18.40;50.50;;;;;;4544854;31;20180;-67
2022/03/12 07:11:31;;;;;;;1.70;1.00;;;18.40;50.50;;;;;;4532070;31;20123;-67
2022/03/12 07:13:58;;;;;;;2.22;1.10;;;18.40;50.50;;;;;;4548308;31;20459;-67
2022/03/12 07:16:24;;;;;;;1.65;1.25;;;18.40;50.50;;;;;;4533132;31;20143;-67
2022/03/12 07:18:50;;;;;;;1.90;1.08;;;18.40;50.50;;;;;;4548851;31;20124;-67
2022/03/12 07:21:16;;;;;;;2.38;1.00;;;18.40;50.50;;;;;;4547225;31;20139;-67
2022/03/12 07:23:42;;;;;;;2.13;1.10;;;18.40;50.50;;;;;;4548460;31;20143;-67
2022/03/12 07:26:08;;;;;;;2.30;1.15;;;18.40;50.50;;;;;;4532867;31;20241;-67
2022/03/12 07:28:35;;;;;;;1.65;1.15;;;18.30;50.50;;;;;;4547927;31;20131;-67
2022/03/12 07:31:01;;;;;;;1.83;1.02;;;18.30;50.50;;;;;;4548031;31;20134;-68
2022/03/12 07:33:28;;;;;;;1.30;1.08;;;18.30;50.50;;;;;;4547406;31;20115;-68
2022/03/12 07:35:55;;;;;;;1.48;1.00;;;18.40;50.50;;;;;;4548281;31;20135;-66
2022/03/12 07:38:21;;;;;;;1.50;0.98;;;18.30;50.40;;;;;;4532450;31;20235;-67
2022/03/12 07:40:47;;;;;;;1.83;1.30;;;18.30;50.50;;;;;;4548340;31;20154;-67
2022/03/12 07:43:13;;;;;;;1.38;1.10;;;18.30;50.40;;;;;;4532868;31;20116;-68
2022/03/12 07:45:39;;;;;;;2.17;1.30;;;18.30;50.40;;;;;;4547696;31;20138;-68
2022/03/12 07:48:05;;;;;;;2.10;1.05;;;18.30;50.40;;;;;;4547409;31;20124;-67
2022/03/12 07:50:31;;;;;;;1.63;1.02;;;18.30;50.40;;;;;;4547149;31;20180;-67
2022/03/12 07:52:57;;;;;;;2.00;1.38;;;18.40;50.50;;;;;;4547995;31;20132;-67
2022/03/12 07:55:23;;;;;;;6.18;2.20;;;18.30;50.20;;;;;;4532123;31;20138;-68
2022/03/12 07:57:50;;;;;;;3.22;2.40;;;18.30;49.40;;;;;;4533596;31;20699;-67
2022/03/12 08:00:16;;;;;;;5.32;2.70;;;18.30;47.90;;;;;;4547000;31;20123;-67
2022/03/12 08:02:43;;;;;;;5.22;3.13;;;18.30;46.70;;;;;;4547680;31;20172;-67
2022/03/12 08:05:10;;;;;;;5.47;3.20;;;18.30;46.10;;;;;;4519179;31;20191;-66
2022/03/12 08:07:39;;;;;;;8.00;3.28;;;18.30;45.10;;;;;;4546896;31;20124;-66
2022/03/12 08:10:06;;;;;;;4.40;2.80;;;18.30;45.00;;;;;;4544974;31;20201;-66
2022/03/12 08:12:35;;;;;;;6.82;2.78;;;18.30;45.40;;;;;;4545550;31;20257;-66
2022/03/12 08:15:05;;;;;;;4.60;2.90;;;18.30;45.40;;;;;;4546876;31;20629;-66
2022/03/12 08:17:35;;;;;;;3.88;2.28;;;18.30;45.40;;;;;;4546444;31;20213;-65
2022/03/12 08:20:05;;;;;;;4.43;2.47;;;18.40;45.50;;;;;;4547322;31;20146;-66
2022/03/12 08:22:31;;;;;;;3.80;2.58;;;18.40;45.60;;;;;;4545598;31;20196;-65
2022/03/12 08:24:56;;;;;;;2.55;2.33;;;18.50;45.70;;;;;;4545921;31;20131;-66
2022/03/12 08:27:22;;;;;;;3.28;2.25;;;18.60;45.60;;;;;;4547317;31;20116;-66
2022/03/12 08:29:49;;;;;;;2.80;2.10;;;18.70;45.60;;;;;;4546305;31;20521;-66
2022/03/12 08:32:15;;;;;;;3.63;2.28;;;18.80;45.50;;;;;;4547229;31;20141;-66
2022/03/12 08:34:41;;;;;;;3.45;2.22;;;18.90;45.40;;;;;;4532021;31;20130;-66
2022/03/12 08:37:07;;;;;;;8.73;1.95;;;19.10;45.30;;;;;;4532072;31;20119;-66
2022/03/12 08:39:34;;;;;;;5.82;2.10;;;19.20;45.20;;;;;;4546355;31;20143;-64
2022/03/12 08:42:00;;;;;;;5.15;1.80;;;19.30;45.20;;;;;;4546256;31;20227;-65
2022/03/12 08:44:26;;;;;;;3.45;2.10;;;19.40;45.10;;;;;;4547036;31;20143;-66
2022/03/12 08:46:52;;;;;;;3.05;1.95;;;19.50;45.10;;;;;;4545471;31;20128;-65
2022/03/12 08:49:18;;;;;;;3.85;1.80;;;19.60;45.00;;;;;;4546447;31;20127;-65
2022/03/12 08:51:44;;;;;;;3.00;1.65;;;19.70;44.90;;;;;;4545276;31;20131;-66
2022/03/12 08:54:11;;;;;;;4.07;2.47;;;19.80;44.70;;;;;;4546539;31;20266;-65
2022/03/12 08:56:37;;;;;;;5.25;2.60;;;19.90;44.10;;;;;;4546141;31;20148;-65
2022/03/12 08:59:04;;;;;;;5.47;2.72;;;20.00;42.90;;;;;;4546302;31;20143;-65
2022/03/12 09:01:32;;;;;;;8.63;3.40;;;20.10;41.80;;;;;;4546518;31;20365;-65
2022/03/12 09:03:58;;;;;;;6.15;3.60;;;20.10;40.70;;;;;;4545517;31;20136;-65
2022/03/12 09:06:27;;;;;;;7.40;3.53;;;20.20;40.00;;;;;;4546635;31;20120;-65
2022/03/12 09:08:53;;;;;;;10.73;4.00;;;20.10;39.40;;;;;;4545821;31;20143;-65
2022/03/12 09:11:20;;;;;;;8.57;3.90;;;20.10;39.20;;;;;;4546271;31;20159;-65
2022/03/12 09:13:47;;;;;;;6.28;4.10;;;20.10;39.10;;;;;;4546346;31;20511;-63
2022/03/12 09:16:14;;;;;;;10.80;4.00;;;20.00;38.70;;;;;;4545683;31;20124;-65
2022/03/12 09:18:42;;;;;;;7.57;4.15;;;19.90;38.60;;;;;;4546608;31;20277;-66
2022/03/12 09:21:08;;;;;;;5.35;3.20;;;19.90;38.70;;;;;;4544654;31;20131;-66
2022/03/12 09:23:34;;;;;;;10.10;3.40;;;19.90;38.90;;;;;;4531549;31;20135;-66
2022/03/12 09:26:00;;;;;;;6.40;3.45;;;19.90;39.20;;;;;;4530642;31;20139;-68
2022/03/12 09:28:27;;;;;;;4.10;2.88;;;19.90;39.50;;;;;;4531210;31;20131;-67
2022/03/12 09:30:54;;;;;;;9.30;3.40;;;20.00;39.70;;;;;;4545806;31;20127;-63
2022/03/12 09:33:21;;;;;;;5.13;3.00;;;20.00;39.90;;;;;;4545338;31;20166;-64
2022/03/12 09:35:48;;;;;;;3.80;2.70;;;20.10;40.10;;;;;;4546541;31;20146;-64
2022/03/12 09:38:17;;;;;;;3.83;2.70;;;20.20;40.20;;;;;;4544496;31;20135;-65
2022/03/12 09:40:44;;;;;;;6.00;2.38;;;20.30;40.20;;;;;;4531794;31;20135;-65
2022/03/12 09:43:11;;;;;;;4.22;2.45;;;20.40;40.30;;;;;;4545233;31;20177;-66
2022/03/12 09:45:37;;;;;;;4.07;2.38;;;20.50;40.30;;;;;;4518232;31;20178;-66
2022/03/12 09:48:04;;;;;;;9.30;2.40;;;20.60;40.30;;;;;;4545222;31;20554;-66
2022/03/12 09:50:31;;;;;;;3.92;2.40;;;20.70;40.50;;;;;;4544748;31;20143;-66
2022/03/12 09:52:57;;;;;;;6.22;2.38;;;20.80;40.50;;;;;;4531179;31;20200;-65
2022/03/12 09:55:23;;;;;;;4.50;2.20;;;20.90;40.60;;;;;;4529526;31;20136;-65
2022/03/12 09:57:50;;;;;;;5.07;2.60;;;20.90;40.50;;;;;;4545319;31;20116;-64
2022/03/12 10:00:18;;;;;;;5.43;2.20;;;21.00;40.70;;;;;;4544977;31;20139;-65
2022/03/12 10:02:45;;;;;;;4.80;2.15;;;21.10;40.60;;;;;;4545686;31;20162;-66
2022/03/12 10:05:13;;;;;;;5.20;2.25;;;21.10;40.60;;;;;;4545257;31;20124;-66
2022/03/12 10:07:41;;;;;;;6.07;2.10;;;21.20;40.70;;;;;;4517415;31;20171;-66
2022/03/12 10:10:15;;;;;;;4.07;2.10;;;21.20;40.80;;;;;;4545591;31;20903;-65
2022/03/12 10:12:42;;;;;;;3.80;2.20;;;21.20;40.80;;;;;;4544354;31;20207;-66
2022/03/12 10:15:10;;;;;;;6.53;1.85;;;21.30;40.90;;;;;;4545375;31;20209;-66
2022/03/12 10:17:36;;;;;;;2.25;1.67;;;21.30;41.00;;;;;;4530095;31;20139;-67
2022/03/12 10:20:03;;;;;;;2.17;1.70;;;21.30;41.00;;;;;;4545063;31;20196;-65
2022/03/12 10:22:31;;;;;;;5.13;2.05;;;21.30;41.10;;;;;;4544681;31;20115;-66
2022/03/12 10:24:57;;;;;;;5.00;2.13;;;21.30;41.20;;;;;;4543523;31;20123;-66
2022/03/12 10:27:23;;;;;;;6.38;1.90;;;21.20;41.30;;;;;;4544820;31;20152;-66
2022/03/12 10:29:50;;;;;;;3.00;2.03;;;21.20;41.50;;;;;;4543661;31;20367;-66
2022/03/12 10:32:44;;;;;;;3.05;1.75;;;21.20;41.70;;;;;;4530467;31;20650;-65
2022/03/12 10:35:12;;;;;;;3.10;1.67;;;21.20;41.90;;;;;;4544224;31;20286;-66
2022/03/12 10:37:39;;;;;;;2.58;1.83;;;21.20;42.00;;;;;;4543729;31;20135;-66
2022/03/12 10:40:20;;;;;;;3.95;1.70;;;21.20;42.20;;;;;;4545748;31;20454;-66
2022/03/12 10:42:58;;;;;;;2.38;1.60;;;21.20;42.30;;;;;;4530236;31;20124;-65
2022/03/12 10:45:26;;;;;;;3.17;1.90;;;21.20;42.40;;;;;;4545791;31;20131;-66
2022/03/12 10:47:55;;;;;;;2.78;1.90;;;21.20;42.50;;;;;;4548371;31;20131;-63
2022/03/12 10:50:26;;;;;;;1.98;1.75;;;21.20;42.60;;;;;;4546729;31;20158;-67
2022/03/12 10:52:55;;;;;;;5.18;1.90;;;21.20;42.70;;;;;;4548404;31;20120;-66
2022/03/12 10:55:30;;;;;;;3.45;2.15;;;21.20;42.80;;;;;;4532777;31;20142;-66
2022/03/12 10:57:58;;;;;;;5.40;1.80;;;21.20;42.90;;;;;;4547971;31;20154;-67
2022/03/12 11:00:29;;;;;;;2.45;1.60;;;21.20;42.90;;;;;;4547317;31;20131;-67
2022/03/12 11:03:00;;;;;;;2.90;1.90;;;21.20;43.10;;;;;;4548104;31;20849;-67
2022/03/12 11:05:32;;;;;;;3.63;1.85;;;21.20;43.10;;;;;;4533411;31;20139;-66
2022/03/12 11:08:19;;;;;;;5.28;1.70;;;21.20;43.20;;;;;;4532841;31;20143;-67
2022/03/12 11:10:46;;;;;;;3.15;1.48;;;21.20;44.30;;;;;;4532401;31;20376;-66
2022/03/12 11:13:25;;;;;;;3.00;1.70;;;21.20;43.40;;;;;;4532902;31;20136;-70
2022/03/12 11:16:24;;;;;;;2.30;1.70;;;21.20;44.40;;;;;;4548000;31;20119;-66
2022/03/12 11:18:53;;;;;;;2.03;1.40;;;21.20;43.60;;;;;;4544350;31;20128;-64
2022/03/12 11:21:42;;;;;;;2.88;1.77;;;21.20;43.70;;;;;;4546813;31;20138;-66
2022/03/12 11:24:18;;;;;;;2.33;1.38;;;21.20;43.80;;;;;;4532859;31;20143;-64
2022/03/12 11:26:54;;;;;;;3.92;1.70;;;21.20;43.80;;;;;;4532687;31;20134;-63
2022/03/12 11:29:23;;;;;;;6.90;2.30;;;21.30;44.00;;;;;;4546627;31;20256;-62
2022/03/12 11:31:51;;;;;;;7.97;2.88;;;21.30;43.70;;;;;;4547569;31;20127;-63
2022/03/12 11:34:30;;;;;;;7.45;3.88;;;21.20;43.30;;;;;;4545172;31;20257;-63
2022/03/12 11:37:04;;;;;;;6.25;3.47;;;21.20;42.90;;;;;;4546236;31;20123;-63
2022/03/12 11:39:32;;;;;;;;;;;21.20;42.40;;;;;;4532371;31;20213;-63
2022/03/12 11:42:09;;;;;;;4.88;3.45;;;21.20;42.50;;;;;;4544949;31;20019;-63
2022/03/12 11:44:35;;;;;;;7.07;3.65;;;21.10;41.90;;;;;;4546528;31;20124;-63
2022/03/12 11:47:02;;;;;;;10.32;3.75;;;21.10;41.60;;;;;;4531374;31;20136;-63
2022/03/12 11:49:29;;;;;;;7.13;3.78;;;21.10;41.40;;;;;;4546548;31;20289;-63
2022/03/12 11:51:56;;;;;;;4.43;3.53;;;21.10;41.20;;;;;;4544492;31;20136;-67
2022/03/12 11:54:23;;;;;;;5.13;3.60;;;21.10;41.10;;;;;;4546967;31;20139;-66
2022/03/12 11:56:51;;;;;;;4.38;3.00;;;21.10;41.10;;;;;;4519347;31;20231;-66
2022/03/12 11:59:18;;;;;;;6.03;3.33;;;21.10;41.20;;;;;;4546768;31;20130;-69
2022/03/12 12:01:55;;;;;;;9.60;2.60;;;21.10;41.40;;;;;;4547982;31;20136;-66
2022/03/12 12:04:22;;;;;;;5.90;2.63;;;21.10;41.60;;;;;;4546548;31;20151;-66
2022/03/12 12:06:48;;;;;;;5.18;2.58;;;21.10;41.80;;;;;;4532944;31;20131;-66
2022/03/12 12:09:16;;;;;;;11.50;2.60;;;21.10;42.00;;;;;;4519576;31;20140;-66
2022/03/12 12:11:42;;;;;;;7.13;2.30;;;21.10;42.10;;;;;;4546802;31;20285;-67
2022/03/12 12:14:08;;;;;;;5.68;2.45;;;21.10;42.30;;;;;;4519853;31;20180;-65
2022/03/12 12:16:34;;;;;;;11.95;2.70;;;21.10;42.50;;;;;;4546470;31;20139;-65
2022/03/12 12:19:00;;;;;;;6.55;2.53;;;21.10;42.60;;;;;;4547537;31;20115;-65
2022/03/12 12:21:26;;;;;;;9.38;2.20;;;21.10;42.70;;;;;;4518739;31;20132;-66
2022/03/12 12:23:52;;;;;;;5.22;2.17;;;21.10;42.90;;;;;;4532823;31;20135;-65
2022/03/12 12:26:20;;;;;;;6.40;2.25;;;21.10;43.00;;;;;;4518389;31;20277;-65
2022/03/12 12:28:51;;;;;;;7.72;2.38;;;21.10;43.10;;;;;;4546214;31;20146;-65
2022/03/12 12:31:26;;;;;;;10.25;2.95;;;21.10;43.00;;;;;;4546616;31;20526;-64
2022/03/12 12:33:55;;;;;;;8.80;2.95;;;21.00;42.80;;;;;;4545625;31;20191;-64
2022/03/12 12:36:24;;;;;;;5.70;2.72;;;21.10;42.70;;;;;;4547321;31;20143;-66
2022/03/12 12:39:07;;;;;;;4.95;2.72;;;21.10;42.60;;;;;;4546254;31;20116;-66
2022/03/12 12:42:05;;;;;;;7.68;2.63;;;21.10;42.60;;;;;;4546817;31;20150;-65
2022/03/12 12:44:43;;;;;;;10.98;2.63;;;21.10;42.70;;;;;;4547397;31;20147;-65
2022/03/12 12:47:17;;;;;;;5.78;2.38;;;21.10;42.80;;;;;;4531725;31;20143;-65
2022/03/12 12:49:54;;;;;;;7.47;2.30;;;21.20;42.90;;;;;;4546586;31;20120;-65
2022/03/12 12:52:21;;;;;;;7.35;2.13;;;21.20;43.00;;;;;;4546631;31;20112;-65
2022/03/12 12:54:59;;;;;;;8.88;2.50;;;21.20;43.10;;;;;;4546315;31;20140;-65